sensor_id;sensor_type;location;lat;lon;timestamp;temperature;humidity
37242;DHT22;23135;51.078;12.108;2023-02-28T00:01:12;-0.70;99.90
37242;DHT22;23135;51.078;12.108;2023-02-28T00:03:38;-0.80;99.90
37242;DHT22;23135;51.078;12.108;2023-02-28T00:06:05;-0.80;99.90
37242;DHT22;23135;51.078;12.108;2023-02-28T00:08:31;-0.70;99.90
37242;DHT22;23135;51.078;12.108;2023-02-28T00:11:00;-0.70;99.90
37242;DHT22;23135;51.078;12.108;2023-02-28T00:13:25;-0.70;99.90
37242;DHT22;23135;51.078;12.108;2023-02-28T00:15:59;-0.60;99.90
37242;DHT22;23135;51.078;12.108;2023-02-28T00:18:25;-0.60;99.90
37242;DHT22;23135;51.078;12.108;2023-02-28T00:20:51;-0.60;99.90
37242;DHT22;23135;51.078;12.108;2023-02-28T00:23:16;-0.60;99.90
37242;DHT22;23135;51.078;12.108;2023-02-28T00:25:42;-0.60;99.90
37242;DHT22;23135;51.078;12.108;2023-02-28T00:28:08;-0.60;99.90
37242;DHT22;23135;51.078;12.108;2023-02-28T00:30:33;-0.60;99.90
37242;DHT22;23135;51.078;12.108;2023-02-28T00:32:59;-0.60;99.90
37242;DHT22;23135;51.078;12.108;2023-02-28T00:35:24;-0.60;99.90
37242;DHT22;23135;51.078;12.108;2023-02-28T00:37:50;-0.60;99.90
37242;DHT22;23135;51.078;12.108;2023-02-28T00:40:15;-0.60;99.90
37242;DHT22;23135;51.078;12.108;2023-02-28T00:42:41;-0.60;99.90
37242;DHT22;23135;51.078;12.108;2023-02-28T00:45:07;-0.50;99.90
37242;DHT22;23135;51.078;12.108;2023-02-28T00:47:35;-0.50;99.90
37242;DHT22;23135;51.078;12.108;2023-02-28T00:50:01;-0.50;99.90
37242;DHT22;23135;51.078;12.108;2023-02-28T00:52:27;-0.60;99.90
37242;DHT22;23135;51.078;12.108;2023-02-28T00:54:53;-0.60;99.90
37242;DHT22;23135;51.078;12.108;2023-02-28T00:57:19;-0.60;99.90
37242;DHT22;23135;51.078;12.108;2023-02-28T00:59:44;-0.60;99.90
37242;DHT22;23135;51.078;12.108;2023-02-28T01:02:10;-0.70;99.90
37242;DHT22;23135;51.078;12.108;2023-02-28T01:04:35;-0.70;99.90
37242;DHT22;23135;51.078;12.108;2023-02-28T01:07:01;-0.70;99.90
37242;DHT22;23135;51.078;12.108;2023-02-28T01:09:26;-0.70;99.90
37242;DHT22;23135;51.078;12.108;2023-02-28T01:11:52;-0.70;99.90
37242;DHT22;23135;51.078;12.108;2023-02-28T01:14:18;-0.70;99.90
37242;DHT22;23135;51.078;12.108;2023-02-28T01:16:43;-0.60;99.90
37242;DHT22;23135;51.078;12.108;2023-02-28T01:19:09;-0.60;99.90
37242;DHT22;23135;51.078;12.108;2023-02-28T01:21:35;-0.60;99.90
37242;DHT22;23135;51.078;12.108;2023-02-28T01:24:02;-0.60;99.90
37242;DHT22;23135;51.078;12.108;2023-02-28T01:26:27;-0.60;99.90
37242;DHT22;23135;51.078;12.108;2023-02-28T01:28:53;-0.60;99.90
37242;DHT22;23135;51.078;12.108;2023-02-28T01:31:19;-0.60;99.90
37242;DHT22;23135;51.078;12.108;2023-02-28T01:33:46;-0.60;99.90
37242;DHT22;23135;51.078;12.108;2023-02-28T01:36:14;-0.60;99.90
37242;DHT22;23135;51.078;12.108;2023-02-28T01:38:40;-0.60;99.90
37242;DHT22;23135;51.078;12.108;2023-02-28T01:41:07;-0.60;99.90
37242;DHT22;23135;51.078;12.108;2023-02-28T01:43:56;-0.60;99.90
37242;DHT22;23135;51.078;12.108;2023-02-28T01:46:23;-0.60;99.90
37242;DHT22;23135;51.078;12.108;2023-02-28T01:48:57;-0.60;99.90
37242;DHT22;23135;51.078;12.108;2023-02-28T01:53:58;-0.60;99.90
37242;DHT22;23135;51.078;12.108;2023-02-28T01:56:29;-0.60;99.90
37242;DHT22;23135;51.078;12.108;2023-02-28T01:58:56;-0.50;99.90
37242;DHT22;23135;51.078;12.108;2023-02-28T02:01:23;-0.50;99.90
37242;DHT22;23135;51.078;12.108;2023-02-28T02:03:53;-0.50;99.90
37242;DHT22;23135;51.078;12.108;2023-02-28T02:06:27;-0.60;99.90
37242;DHT22;23135;51.078;12.108;2023-02-28T02:08:54;-0.60;99.90
37242;DHT22;23135;51.078;12.108;2023-02-28T02:11:22;-0.60;99.90
37242;DHT22;23135;51.078;12.108;2023-02-28T02:19:55;-0.70;99.90
37242;DHT22;23135;51.078;12.108;2023-02-28T02:26:15;-0.80;99.90
37242;DHT22;23135;51.078;12.108;2023-02-28T02:29:01;-0.80;99.90
37242;DHT22;23135;51.078;12.108;2023-02-28T02:31:53;-0.90;99.90
37242;DHT22;23135;51.078;12.108;2023-02-28T02:45:03;-1.00;99.90
37242;DHT22;23135;51.078;12.108;2023-02-28T02:47:31;-1.10;99.90
37242;DHT22;23135;51.078;12.108;2023-02-28T02:49:59;-1.20;99.90
37242;DHT22;23135;51.078;12.108;2023-02-28T02:52:36;-1.20;99.90
37242;DHT22;23135;51.078;12.108;2023-02-28T02:55:04;-1.30;99.90
37242;DHT22;23135;51.078;12.108;2023-02-28T02:57:38;-1.30;99.90
37242;DHT22;23135;51.078;12.108;2023-02-28T03:00:06;-1.40;99.90
37242;DHT22;23135;51.078;12.108;2023-02-28T03:02:35;-1.40;99.90
37242;DHT22;23135;51.078;12.108;2023-02-28T03:05:06;-1.50;99.90
37242;DHT22;23135;51.078;12.108;2023-02-28T03:07:33;-1.50;99.90
37242;DHT22;23135;51.078;12.108;2023-02-28T03:09:59;-1.60;99.90
37242;DHT22;23135;51.078;12.108;2023-02-28T03:12:34;-1.70;99.90
37242;DHT22;23135;51.078;12.108;2023-02-28T03:15:22;-1.80;99.90
37242;DHT22;23135;51.078;12.108;2023-02-28T03:21:12;-1.80;99.90
37242;DHT22;23135;51.078;12.108;2023-02-28T03:23:44;-1.80;99.90
37242;DHT22;23135;51.078;12.108;2023-02-28T03:26:19;-1.80;99.90
37242;DHT22;23135;51.078;12.108;2023-02-28T03:29:02;-1.90;99.90
37242;DHT22;23135;51.078;12.108;2023-02-28T03:31:37;-1.80;99.90
37242;DHT22;23135;51.078;12.108;2023-02-28T03:34:08;-1.90;99.90
37242;DHT22;23135;51.078;12.108;2023-02-28T03:36:38;-1.90;99.90
37242;DHT22;23135;51.078;12.108;2023-02-28T03:39:16;-2.00;99.90
37242;DHT22;23135;51.078;12.108;2023-02-28T03:41:49;-2.00;99.90
37242;DHT22;23135;51.078;12.108;2023-02-28T03:44:24;-2.10;99.90
37242;DHT22;23135;51.078;12.108;2023-02-28T03:46:59;-2.10;99.90
37242;DHT22;23135;51.078;12.108;2023-02-28T03:49:32;-2.00;99.90
37242;DHT22;23135;51.078;12.108;2023-02-28T03:52:02;-2.00;99.90
37242;DHT22;23135;51.078;12.108;2023-02-28T03:54:32;-2.00;99.90
37242;DHT22;23135;51.078;12.108;2023-02-28T03:57:12;-1.90;99.90
37242;DHT22;23135;51.078;12.108;2023-02-28T03:59:44;-1.80;99.90
37242;DHT22;23135;51.078;12.108;2023-02-28T04:02:11;-1.80;99.90
37242;DHT22;23135;51.078;12.108;2023-02-28T04:04:37;-1.80;99.90
37242;DHT22;23135;51.078;12.108;2023-02-28T04:07:06;-1.80;99.90
37242;DHT22;23135;51.078;12.108;2023-02-28T04:09:32;-1.80;99.90
37242;DHT22;23135;51.078;12.108;2023-02-28T04:11:57;-1.70;99.90
37242;DHT22;23135;51.078;12.108;2023-02-28T04:14:23;-1.70;99.90
37242;DHT22;23135;51.078;12.108;2023-02-28T04:16:49;-1.60;99.90
37242;DHT22;23135;51.078;12.108;2023-02-28T04:19:16;-1.60;99.90
37242;DHT22;23135;51.078;12.108;2023-02-28T04:21:45;-1.50;99.90
37242;DHT22;23135;51.078;12.108;2023-02-28T04:24:14;-1.40;99.90
37242;DHT22;23135;51.078;12.108;2023-02-28T04:26:41;-1.40;99.90
37242;DHT22;23135;51.078;12.108;2023-02-28T04:29:09;-1.30;99.90
37242;DHT22;23135;51.078;12.108;2023-02-28T04:31:35;-1.30;99.90
37242;DHT22;23135;51.078;12.108;2023-02-28T04:34:01;-1.30;99.90
37242;DHT22;23135;51.078;12.108;2023-02-28T04:36:27;-1.20;99.90
37242;DHT22;23135;51.078;12.108;2023-02-28T04:38:53;-1.20;99.90
37242;DHT22;23135;51.078;12.108;2023-02-28T04:41:19;-1.20;99.90
37242;DHT22;23135;51.078;12.108;2023-02-28T04:43:44;-1.20;99.90
37242;DHT22;23135;51.078;12.108;2023-02-28T04:46:10;-1.20;99.90
37242;DHT22;23135;51.078;12.108;2023-02-28T04:48:38;-1.20;99.90
37242;DHT22;23135;51.078;12.108;2023-02-28T04:51:06;-1.20;99.90
37242;DHT22;23135;51.078;12.108;2023-02-28T04:53:33;-1.20;99.90
37242;DHT22;23135;51.078;12.108;2023-02-28T04:55:59;-1.20;99.90
37242;DHT22;23135;51.078;12.108;2023-02-28T04:58:25;-1.10;99.90
37242;DHT22;23135;51.078;12.108;2023-02-28T05:00:52;-1.10;99.90
37242;DHT22;23135;51.078;12.108;2023-02-28T05:03:17;-1.10;99.90
37242;DHT22;23135;51.078;12.108;2023-02-28T05:05:43;-1.10;99.90
37242;DHT22;23135;51.078;12.108;2023-02-28T05:08:09;-1.10;99.90
37242;DHT22;23135;51.078;12.108;2023-02-28T05:10:35;-1.10;99.90
37242;DHT22;23135;51.078;12.108;2023-02-28T05:13:00;-1.10;99.90
37242;DHT22;23135;51.078;12.108;2023-02-28T05:15:26;-1.10;99.90
37242;DHT22;23135;51.078;12.108;2023-02-28T05:17:52;-1.00;99.90
37242;DHT22;23135;51.078;12.108;2023-02-28T05:20:17;-1.00;99.90
37242;DHT22;23135;51.078;12.108;2023-02-28T05:22:43;-1.00;99.90
37242;DHT22;23135;51.078;12.108;2023-02-28T05:25:15;-1.00;99.90
37242;DHT22;23135;51.078;12.108;2023-02-28T05:27:41;-1.00;99.90
37242;DHT22;23135;51.078;12.108;2023-02-28T05:30:08;-1.10;99.90
37242;DHT22;23135;51.078;12.108;2023-02-28T05:32:36;-1.10;99.90
37242;DHT22;23135;51.078;12.108;2023-02-28T05:35:02;-1.00;99.90
37242;DHT22;23135;51.078;12.108;2023-02-28T05:37:28;-1.00;99.90
37242;DHT22;23135;51.078;12.108;2023-02-28T05:39:53;-1.00;99.90
37242;DHT22;23135;51.078;12.108;2023-02-28T05:42:19;-1.10;99.90
37242;DHT22;23135;51.078;12.108;2023-02-28T05:44:44;-1.20;99.90
37242;DHT22;23135;51.078;12.108;2023-02-28T05:47:10;-1.30;99.90
37242;DHT22;23135;51.078;12.108;2023-02-28T05:49:37;-1.30;99.90
37242;DHT22;23135;51.078;12.108;2023-02-28T05:52:03;-1.30;99.90
37242;DHT22;23135;51.078;12.108;2023-02-28T05:54:29;-1.30;99.90
37242;DHT22;23135;51.078;12.108;2023-02-28T05:56:54;-1.30;99.90
37242;DHT22;23135;51.078;12.108;2023-02-28T05:59:20;-1.30;99.90
37242;DHT22;23135;51.078;12.108;2023-02-28T06:01:46;-1.20;99.90
37242;DHT22;23135;51.078;12.108;2023-02-28T06:04:17;-1.20;99.90
37242;DHT22;23135;51.078;12.108;2023-02-28T06:06:45;-1.10;99.90
37242;DHT22;23135;51.078;12.108;2023-02-28T06:09:11;-1.10;99.90
37242;DHT22;23135;51.078;12.108;2023-02-28T06:11:37;-1.00;99.90
37242;DHT22;23135;51.078;12.108;2023-02-28T06:14:03;-1.00;99.90
37242;DHT22;23135;51.078;12.108;2023-02-28T06:16:31;-1.00;99.90
37242;DHT22;23135;51.078;12.108;2023-02-28T06:18:58;-1.00;99.90
37242;DHT22;23135;51.078;12.108;2023-02-28T06:21:24;-0.90;99.90
37242;DHT22;23135;51.078;12.108;2023-02-28T06:23:50;-0.90;99.90
37242;DHT22;23135;51.078;12.108;2023-02-28T06:26:16;-0.90;99.90
37242;DHT22;23135;51.078;12.108;2023-02-28T06:28:41;-0.80;99.90
37242;DHT22;23135;51.078;12.108;2023-02-28T06:31:09;-0.80;99.90
37242;DHT22;23135;51.078;12.108;2023-02-28T06:33:36;-0.70;99.90
37242;DHT22;23135;51.078;12.108;2023-02-28T06:36:02;-0.70;99.90
37242;DHT22;23135;51.078;12.108;2023-02-28T06:38:28;-0.60;99.90
37242;DHT22;23135;51.078;12.108;2023-02-28T06:40:54;-0.60;99.90
37242;DHT22;23135;51.078;12.108;2023-02-28T06:43:21;-0.60;99.90
37242;DHT22;23135;51.078;12.108;2023-02-28T06:45:47;-0.50;99.90
37242;DHT22;23135;51.078;12.108;2023-02-28T06:48:12;-0.50;99.90
37242;DHT22;23135;51.078;12.108;2023-02-28T06:50:38;-0.50;99.90
37242;DHT22;23135;51.078;12.108;2023-02-28T06:53:03;-0.50;99.90
37242;DHT22;23135;51.078;12.108;2023-02-28T06:55:29;-0.50;99.90
37242;DHT22;23135;51.078;12.108;2023-02-28T06:57:55;-0.50;99.90
37242;DHT22;23135;51.078;12.108;2023-02-28T07:00:21;-0.50;99.90
37242;DHT22;23135;51.078;12.108;2023-02-28T07:02:46;-0.50;99.90
37242;DHT22;23135;51.078;12.108;2023-02-28T07:05:12;-0.50;99.90
37242;DHT22;23135;51.078;12.108;2023-02-28T07:07:38;-0.50;99.90
37242;DHT22;23135;51.078;12.108;2023-02-28T07:10:12;-0.50;99.90
37242;DHT22;23135;51.078;12.108;2023-02-28T07:12:39;-0.50;99.90
37242;DHT22;23135;51.078;12.108;2023-02-28T07:15:05;-0.50;99.90
37242;DHT22;23135;51.078;12.108;2023-02-28T07:17:31;-0.40;99.90
37242;DHT22;23135;51.078;12.108;2023-02-28T07:19:57;-0.40;99.90
37242;DHT22;23135;51.078;12.108;2023-02-28T07:22:22;-0.40;99.90
37242;DHT22;23135;51.078;12.108;2023-02-28T07:24:48;-0.40;99.90
37242;DHT22;23135;51.078;12.108;2023-02-28T07:27:14;-0.40;99.90
37242;DHT22;23135;51.078;12.108;2023-02-28T07:29:49;-0.30;99.90
37242;DHT22;23135;51.078;12.108;2023-02-28T07:32:15;-0.30;99.90
37242;DHT22;23135;51.078;12.108;2023-02-28T07:34:40;-0.20;99.90
37242;DHT22;23135;51.078;12.108;2023-02-28T07:37:06;-0.20;99.90
37242;DHT22;23135;51.078;12.108;2023-02-28T07:39:31;-0.20;99.90
37242;DHT22;23135;51.078;12.108;2023-02-28T07:41:57;-0.10;99.90
37242;DHT22;23135;51.078;12.108;2023-02-28T07:44:25;0.00;99.90
37242;DHT22;23135;51.078;12.108;2023-02-28T07:46:51;0.00;99.90
37242;DHT22;23135;51.078;12.108;2023-02-28T07:49:16;0.10;99.90
37242;DHT22;23135;51.078;12.108;2023-02-28T07:51:42;0.10;99.90
37242;DHT22;23135;51.078;12.108;2023-02-28T07:54:07;0.10;99.90
37242;DHT22;23135;51.078;12.108;2023-02-28T07:56:33;0.20;99.90
37242;DHT22;23135;51.078;12.108;2023-02-28T07:58:58;0.20;99.90
37242;DHT22;23135;51.078;12.108;2023-02-28T08:01:24;0.30;99.90
37242;DHT22;23135;51.078;12.108;2023-02-28T08:03:50;0.40;99.90
37242;DHT22;23135;51.078;12.108;2023-02-28T08:06:21;0.70;99.90
37242;DHT22;23135;51.078;12.108;2023-02-28T08:08:47;1.10;99.90
37242;DHT22;23135;51.078;12.108;2023-02-28T08:11:13;1.30;99.90
37242;DHT22;23135;51.078;12.108;2023-02-28T08:13:39;1.40;99.90
37242;DHT22;23135;51.078;12.108;2023-02-28T08:16:04;1.50;99.90
37242;DHT22;23135;51.078;12.108;2023-02-28T08:18:30;1.70;99.90
37242;DHT22;23135;51.078;12.108;2023-02-28T08:20:57;1.80;99.90
37242;DHT22;23135;51.078;12.108;2023-02-28T08:23:23;2.00;99.90
37242;DHT22;23135;51.078;12.108;2023-02-28T08:25:55;2.10;99.90
37242;DHT22;23135;51.078;12.108;2023-02-28T08:28:21;2.10;99.90
37242;DHT22;23135;51.078;12.108;2023-02-28T08:30:47;2.20;99.90
37242;DHT22;23135;51.078;12.108;2023-02-28T08:33:12;2.30;99.90
37242;DHT22;23135;51.078;12.108;2023-02-28T08:35:38;2.30;99.90
37242;DHT22;23135;51.078;12.108;2023-02-28T08:38:03;2.40;99.90
37242;DHT22;23135;51.078;12.108;2023-02-28T08:40:29;2.40;99.90
37242;DHT22;23135;51.078;12.108;2023-02-28T08:42:54;2.40;99.90
37242;DHT22;23135;51.078;12.108;2023-02-28T08:45:20;2.40;99.90
37242;DHT22;23135;51.078;12.108;2023-02-28T08:47:45;2.30;99.90
37242;DHT22;23135;51.078;12.108;2023-02-28T08:50:11;2.30;99.90
37242;DHT22;23135;51.078;12.108;2023-02-28T08:52:42;2.40;99.90
37242;DHT22;23135;51.078;12.108;2023-02-28T08:55:08;2.50;99.90
37242;DHT22;23135;51.078;12.108;2023-02-28T08:57:35;2.50;99.90
37242;DHT22;23135;51.078;12.108;2023-02-28T09:00:00;2.40;99.90
37242;DHT22;23135;51.078;12.108;2023-02-28T09:02:30;2.40;99.90
37242;DHT22;23135;51.078;12.108;2023-02-28T09:04:57;2.40;99.90
37242;DHT22;23135;51.078;12.108;2023-02-28T09:07:25;2.50;99.90
37242;DHT22;23135;51.078;12.108;2023-02-28T09:09:50;2.50;99.90
37242;DHT22;23135;51.078;12.108;2023-02-28T09:12:23;2.50;99.90
37242;DHT22;23135;51.078;12.108;2023-02-28T09:14:49;2.50;99.90
37242;DHT22;23135;51.078;12.108;2023-02-28T09:17:14;2.50;99.90
37242;DHT22;23135;51.078;12.108;2023-02-28T09:19:40;2.60;99.90
37242;DHT22;23135;51.078;12.108;2023-02-28T09:22:06;2.60;99.90
37242;DHT22;23135;51.078;12.108;2023-02-28T09:24:31;2.60;99.90
37242;DHT22;23135;51.078;12.108;2023-02-28T09:26:57;2.50;99.90
37242;DHT22;23135;51.078;12.108;2023-02-28T09:29:23;2.50;99.90
37242;DHT22;23135;51.078;12.108;2023-02-28T09:31:48;2.50;99.90
37242;DHT22;23135;51.078;12.108;2023-02-28T09:34:14;2.60;99.90
37242;DHT22;23135;51.078;12.108;2023-02-28T09:36:41;2.60;99.90
37242;DHT22;23135;51.078;12.108;2023-02-28T09:39:06;2.70;99.90
37242;DHT22;23135;51.078;12.108;2023-02-28T09:41:38;2.70;99.90
37242;DHT22;23135;51.078;12.108;2023-02-28T09:44:07;2.80;99.90
37242;DHT22;23135;51.078;12.108;2023-02-28T09:46:41;2.90;99.90
37242;DHT22;23135;51.078;12.108;2023-02-28T09:49:14;3.10;99.90
37242;DHT22;23135;51.078;12.108;2023-02-28T09:52:03;2.90;99.90
37242;DHT22;23135;51.078;12.108;2023-02-28T09:54:32;2.80;99.90
37242;DHT22;23135;51.078;12.108;2023-02-28T09:59:51;2.60;99.90
37242;DHT22;23135;51.078;12.108;2023-02-28T10:05:40;2.70;99.90
37242;DHT22;23135;51.078;12.108;2023-02-28T10:08:26;2.40;99.90
37242;DHT22;23135;51.078;12.108;2023-02-28T10:11:06;2.20;99.90
37242;DHT22;23135;51.078;12.108;2023-02-28T10:13:42;2.10;99.90
37242;DHT22;23135;51.078;12.108;2023-02-28T10:16:14;2.10;99.90
37242;DHT22;23135;51.078;12.108;2023-02-28T10:21:42;2.00;99.90
37242;DHT22;23135;51.078;12.108;2023-02-28T10:24:35;1.90;99.90
37242;DHT22;23135;51.078;12.108;2023-02-28T10:29:43;2.40;99.90
37242;DHT22;23135;51.078;12.108;2023-02-28T10:32:12;2.70;99.90
37242;DHT22;23135;51.078;12.108;2023-02-28T10:34:38;3.10;99.90
37242;DHT22;23135;51.078;12.108;2023-02-28T10:37:04;3.50;99.90
37242;DHT22;23135;51.078;12.108;2023-02-28T10:39:45;3.70;99.90
37242;DHT22;23135;51.078;12.108;2023-02-28T10:42:27;3.90;99.90
37242;DHT22;23135;51.078;12.108;2023-02-28T10:45:11;3.90;99.90
37242;DHT22;23135;51.078;12.108;2023-02-28T10:47:48;3.80;99.90
37242;DHT22;23135;51.078;12.108;2023-02-28T10:53:14;3.80;99.90
37242;DHT22;23135;51.078;12.108;2023-02-28T10:55:41;3.70;99.90
37242;DHT22;23135;51.078;12.108;2023-02-28T10:58:24;3.60;99.90
37242;DHT22;23135;51.078;12.108;2023-02-28T11:00:51;3.20;99.90
37242;DHT22;23135;51.078;12.108;2023-02-28T11:03:32;2.90;99.90
37242;DHT22;23135;51.078;12.108;2023-02-28T11:06:03;3.00;99.90
37242;DHT22;23135;51.078;12.108;2023-02-28T11:08:29;3.20;99.90
37242;DHT22;23135;51.078;12.108;2023-02-28T11:11:03;3.20;99.90
37242;DHT22;23135;51.078;12.108;2023-02-28T11:13:33;2.90;99.90
37242;DHT22;23135;51.078;12.108;2023-02-28T11:16:03;2.80;99.90
37242;DHT22;23135;51.078;12.108;2023-02-28T11:21:04;2.60;99.90
37242;DHT22;23135;51.078;12.108;2023-02-28T11:23:32;2.60;99.90
37242;DHT22;23135;51.078;12.108;2023-02-28T11:26:01;2.60;99.90
37242;DHT22;23135;51.078;12.108;2023-02-28T11:28:35;2.80;99.90
37242;DHT22;23135;51.078;12.108;2023-02-28T11:33:44;3.30;99.90
37242;DHT22;23135;51.078;12.108;2023-02-28T11:36:28;3.50;99.90
37242;DHT22;23135;51.078;12.108;2023-02-28T11:38:56;3.50;99.90
37242;DHT22;23135;51.078;12.108;2023-02-28T11:41:54;3.60;99.90
37242;DHT22;23135;51.078;12.108;2023-02-28T11:53:32;4.20;99.90
37242;DHT22;23135;51.078;12.108;2023-02-28T11:56:09;4.00;99.90
37242;DHT22;23135;51.078;12.108;2023-02-28T11:58:42;4.30;99.90
37242;DHT22;23135;51.078;12.108;2023-02-28T12:01:27;4.20;99.90
37242;DHT22;23135;51.078;12.108;2023-02-28T12:04:16;4.10;99.90
37242;DHT22;23135;51.078;12.108;2023-02-28T12:10:10;4.60;99.90
37242;DHT22;23135;51.078;12.108;2023-02-28T12:18:17;5.10;99.90
37242;DHT22;23135;51.078;12.108;2023-02-28T12:20:56;5.10;99.90
37242;DHT22;23135;51.078;12.108;2023-02-28T12:24:03;5.40;99.90
37242;DHT22;23135;51.078;12.108;2023-02-28T12:26:41;5.40;99.90
37242;DHT22;23135;51.078;12.108;2023-02-28T12:29:25;5.40;99.90
37242;DHT22;23135;51.078;12.108;2023-02-28T12:32:20;5.30;99.90
37242;DHT22;23135;51.078;12.108;2023-02-28T12:34:53;5.50;99.90
37242;DHT22;23135;51.078;12.108;2023-02-28T12:37:27;5.40;99.90
37242;DHT22;23135;51.078;12.108;2023-02-28T12:40:01;5.40;99.90
37242;DHT22;23135;51.078;12.108;2023-02-28T12:42:34;5.40;99.90
37242;DHT22;23135;51.078;12.108;2023-02-28T12:48:00;5.70;99.90
37242;DHT22;23135;51.078;12.108;2023-02-28T12:50:27;6.00;99.90
37242;DHT22;23135;51.078;12.108;2023-02-28T12:53:00;6.20;99.90
37242;DHT22;23135;51.078;12.108;2023-02-28T12:55:31;6.20;99.10
37242;DHT22;23135;51.078;12.108;2023-02-28T12:58:08;5.90;99.00
37242;DHT22;23135;51.078;12.108;2023-02-28T13:06:39;5.90;99.90
37242;DHT22;23135;51.078;12.108;2023-02-28T13:09:16;5.60;99.90
37242;DHT22;23135;51.078;12.108;2023-02-28T13:11:50;5.30;99.90
37242;DHT22;23135;51.078;12.108;2023-02-28T13:14:37;4.80;99.90
37242;DHT22;23135;51.078;12.108;2023-02-28T13:17:17;4.40;99.90
37242;DHT22;23135;51.078;12.108;2023-02-28T13:22:18;4.10;99.90
37242;DHT22;23135;51.078;12.108;2023-02-28T13:24:45;3.90;99.90
37242;DHT22;23135;51.078;12.108;2023-02-28T13:27:31;4.10;99.90
37242;DHT22;23135;51.078;12.108;2023-02-28T13:29:57;4.50;99.90
37242;DHT22;23135;51.078;12.108;2023-02-28T13:47:36;5.20;99.90
37242;DHT22;23135;51.078;12.108;2023-02-28T13:55:53;4.00;99.90
37242;DHT22;23135;51.078;12.108;2023-02-28T14:04:23;4.50;99.90
37242;DHT22;23135;51.078;12.108;2023-02-28T14:06:55;4.50;99.90
37242;DHT22;23135;51.078;12.108;2023-02-28T14:09:36;3.90;99.90
37242;DHT22;23135;51.078;12.108;2023-02-28T14:17:53;4.50;99.90
37242;DHT22;23135;51.078;12.108;2023-02-28T14:20:20;4.80;99.90
37242;DHT22;23135;51.078;12.108;2023-02-28T14:25:33;5.00;99.90
37242;DHT22;23135;51.078;12.108;2023-02-28T14:28:13;5.10;99.90
37242;DHT22;23135;51.078;12.108;2023-02-28T14:38:36;5.20;99.90
37242;DHT22;23135;51.078;12.108;2023-02-28T14:41:19;5.20;99.90
37242;DHT22;23135;51.078;12.108;2023-02-28T14:43:51;5.00;99.90
37242;DHT22;23135;51.078;12.108;2023-02-28T14:46:17;4.60;99.90
37242;DHT22;23135;51.078;12.108;2023-02-28T14:48:48;4.10;99.90
37242;DHT22;23135;51.078;12.108;2023-02-28T14:51:19;3.80;99.90
37242;DHT22;23135;51.078;12.108;2023-02-28T14:53:52;3.40;99.90
37242;DHT22;23135;51.078;12.108;2023-02-28T14:56:23;3.30;99.90
37242;DHT22;23135;51.078;12.108;2023-02-28T14:58:55;3.60;99.90
37242;DHT22;23135;51.078;12.108;2023-02-28T15:01:23;3.70;99.90
37242;DHT22;23135;51.078;12.108;2023-02-28T15:03:58;3.90;99.90
37242;DHT22;23135;51.078;12.108;2023-02-28T15:06:24;4.10;99.90
37242;DHT22;23135;51.078;12.108;2023-02-28T15:09:11;4.10;99.90
37242;DHT22;23135;51.078;12.108;2023-02-28T15:11:40;4.20;99.90
37242;DHT22;23135;51.078;12.108;2023-02-28T15:14:06;4.30;99.90
37242;DHT22;23135;51.078;12.108;2023-02-28T15:16:35;4.30;99.90
37242;DHT22;23135;51.078;12.108;2023-02-28T15:19:16;4.30;99.90
37242;DHT22;23135;51.078;12.108;2023-02-28T15:21:45;4.40;99.90
37242;DHT22;23135;51.078;12.108;2023-02-28T15:27:04;4.30;99.90
37242;DHT22;23135;51.078;12.108;2023-02-28T15:29:34;4.30;99.90
37242;DHT22;23135;51.078;12.108;2023-02-28T15:32:05;4.10;99.90
37242;DHT22;23135;51.078;12.108;2023-02-28T15:34:41;4.00;99.90
37242;DHT22;23135;51.078;12.108;2023-02-28T15:37:30;3.90;99.90
37242;DHT22;23135;51.078;12.108;2023-02-28T15:39:58;3.80;99.90
37242;DHT22;23135;51.078;12.108;2023-02-28T15:42:28;3.70;99.90
37242;DHT22;23135;51.078;12.108;2023-02-28T15:44:54;3.60;99.90
37242;DHT22;23135;51.078;12.108;2023-02-28T15:47:24;3.60;99.90
37242;DHT22;23135;51.078;12.108;2023-02-28T15:50:12;3.60;99.90
37242;DHT22;23135;51.078;12.108;2023-02-28T15:52:41;3.60;99.90
37242;DHT22;23135;51.078;12.108;2023-02-28T15:55:20;3.60;99.90
37242;DHT22;23135;51.078;12.108;2023-02-28T15:57:50;3.50;99.90
37242;DHT22;23135;51.078;12.108;2023-02-28T16:00:20;3.40;99.90
37242;DHT22;23135;51.078;12.108;2023-02-28T16:02:46;3.30;99.90
37242;DHT22;23135;51.078;12.108;2023-02-28T16:07:41;2.90;99.90
37242;DHT22;23135;51.078;12.108;2023-02-28T16:10:10;2.70;99.90
37242;DHT22;23135;51.078;12.108;2023-02-28T16:12:38;2.60;99.90
37242;DHT22;23135;51.078;12.108;2023-02-28T16:15:19;2.50;99.90
37242;DHT22;23135;51.078;12.108;2023-02-28T16:17:46;2.30;99.90
37242;DHT22;23135;51.078;12.108;2023-02-28T16:20:20;2.20;99.90
37242;DHT22;23135;51.078;12.108;2023-02-28T16:22:46;2.00;99.90
37242;DHT22;23135;51.078;12.108;2023-02-28T16:25:17;1.90;99.90
37242;DHT22;23135;51.078;12.108;2023-02-28T16:27:43;1.80;99.90
37242;DHT22;23135;51.078;12.108;2023-02-28T16:30:18;1.70;99.90
37242;DHT22;23135;51.078;12.108;2023-02-28T16:32:44;1.60;99.90
37242;DHT22;23135;51.078;12.108;2023-02-28T16:35:10;1.50;99.90
37242;DHT22;23135;51.078;12.108;2023-02-28T16:37:36;1.30;99.90
37242;DHT22;23135;51.078;12.108;2023-02-28T16:40:03;1.20;99.90
37242;DHT22;23135;51.078;12.108;2023-02-28T16:42:28;1.20;99.90
37242;DHT22;23135;51.078;12.108;2023-02-28T16:44:56;1.10;99.90
37242;DHT22;23135;51.078;12.108;2023-02-28T16:47:23;1.00;99.90
37242;DHT22;23135;51.078;12.108;2023-02-28T16:49:49;0.90;99.90
37242;DHT22;23135;51.078;12.108;2023-02-28T16:52:15;0.80;99.90
37242;DHT22;23135;51.078;12.108;2023-02-28T16:54:41;0.70;99.90
37242;DHT22;23135;51.078;12.108;2023-02-28T16:57:15;0.70;99.90
37242;DHT22;23135;51.078;12.108;2023-02-28T16:59:42;0.60;99.90
37242;DHT22;23135;51.078;12.108;2023-02-28T17:02:13;0.60;99.90
37242;DHT22;23135;51.078;12.108;2023-02-28T17:04:39;0.50;99.90
37242;DHT22;23135;51.078;12.108;2023-02-28T17:07:04;0.50;99.90
37242;DHT22;23135;51.078;12.108;2023-02-28T17:09:30;0.40;99.90
37242;DHT22;23135;51.078;12.108;2023-02-28T17:11:56;0.40;99.90
37242;DHT22;23135;51.078;12.108;2023-02-28T17:14:22;0.30;99.90
37242;DHT22;23135;51.078;12.108;2023-02-28T17:16:48;0.30;99.90
37242;DHT22;23135;51.078;12.108;2023-02-28T17:19:15;0.20;99.90
37242;DHT22;23135;51.078;12.108;2023-02-28T17:21:42;0.20;99.90
37242;DHT22;23135;51.078;12.108;2023-02-28T17:24:08;0.10;99.90
37242;DHT22;23135;51.078;12.108;2023-02-28T17:26:34;0.10;99.90
37242;DHT22;23135;51.078;12.108;2023-02-28T17:28:59;0.10;99.90
37242;DHT22;23135;51.078;12.108;2023-02-28T17:31:26;0.00;99.90
37242;DHT22;23135;51.078;12.108;2023-02-28T17:33:53;-0.10;99.90
37242;DHT22;23135;51.078;12.108;2023-02-28T17:36:24;-0.10;99.90
37242;DHT22;23135;51.078;12.108;2023-02-28T17:38:52;-0.20;99.90
37242;DHT22;23135;51.078;12.108;2023-02-28T17:41:18;-0.20;99.90